Time;durP1;ratioP1;P1;durP2;ratioP2;P2;SDS_P1;SDS_P2;PMS_P1;PMS_P2;Temp;Humidity;BMP_temperature;BMP_pressure;BME280_temperature;BME280_humidity;BME280_pressure;Samples;Min_cycle;Max_cycle;Signal;HPM_P1;HPM_P2
2022/03/22 00:02:01;;;;;;;;;;;;;;;4.03;71.78;101031.25;5021853;28;20015;-81
2022/03/22 00:04:27;;;;;;;;;;;;;;;4.07;71.88;101031.25;5020704;28;19917;-83
2022/03/22 00:06:52;;;;;;;;;;;;;;;4.07;71.82;101031.25;5020645;28;20332;-80
2022/03/22 06:16:40;;;;;;;;;;;;;;;2.80;84.62;101083.69;5552728;23;19938;-79
2022/03/22 06:19:05;;;;;;;;;;;;;;;2.74;84.19;101081.88;5012945;28;19931;-79
2022/03/22 06:21:31;;;;;;;;;;;;;;;2.65;83.98;101079.16;4995661;28;19922;-80
2022/03/22 06:23:56;;;;;;;;;;;;;;;2.61;83.92;101080.00;5013398;28;19928;-81
2022/03/22 06:26:21;;;;;;;;;;;;;;;2.59;83.70;101082.63;5013099;28;19917;-81
2022/03/22 06:28:46;;;;;;;;;;;;;;;2.60;83.92;101079.16;5013560;28;20185;-80
2022/03/22 06:31:12;;;;;;;;;;;;;;;2.61;83.85;101080.88;4994425;28;19922;-79
2022/03/22 06:33:37;;;;;;;;;;;;;;;2.62;83.61;101085.25;4995618;28;20072;-80
2022/03/22 06:36:04;;;;;;;;;;;;;;;2.58;83.56;101093.94;5013304;28;20052;-79
2022/03/22 06:38:32;;;;;;;;;;;;;;;2.58;83.53;101090.44;5013337;28;20035;-82
2022/03/22 06:40:57;;;;;;;;;;;;;;;2.56;83.18;101090.44;5011760;28;19921;-81
2022/03/22 06:43:23;;;;;;;;;;;;;;;2.55;83.41;101096.50;4995596;28;19925;-78
2022/03/22 06:45:48;;;;;;;;;;;;;;;2.55;83.17;101099.13;5011843;28;19923;-80
2022/03/22 06:48:15;;;;;;;;;;;;;;;2.56;83.22;101102.66;5013033;28;20361;-81
2022/03/22 06:50:42;;;;;;;;;;;;;;;2.52;83.09;101101.72;5012773;28;19980;-80
2022/03/22 06:53:07;;;;;;;;;;;;;;;2.52;83.21;101099.09;5012899;28;19941;-80
2022/03/22 06:55:34;;;;;;;;;;;;;;;2.48;83.26;101094.72;5011543;28;19918;-79
2022/03/22 06:57:59;;;;;;;;;;;;;;;2.50;83.30;101103.44;5012836;28;20011;-78
2022/03/22 07:00:27;;;;;;;;;;;;;;;2.44;83.20;101100.75;5011684;28;20008;-80
2022/03/22 07:02:53;;;;;;;;;;;;;;;2.48;83.16;101095.56;4995109;28;19917;-78
2022/03/22 07:05:18;;;;;;;;;;;;;;;2.48;83.00;101099.94;5012828;28;20288;-78
2022/03/22 07:07:44;;;;;;;;;;;;;;;2.46;82.91;101096.44;5012785;28;19973;-79
2022/03/22 07:10:14;;;;;;;;;;;;;;;2.45;82.79;101094.66;4994808;28;20420;-78
2022/03/22 07:12:51;;;;;;;;;;;;;;;2.45;82.77;101100.78;5012721;28;19917;-79
2022/03/22 07:15:18;;;;;;;;;;;;;;;2.46;82.84;101097.31;5010372;28;20327;-79
2022/03/22 07:17:43;;;;;;;;;;;;;;;2.42;82.65;101102.47;5012525;28;19932;-79
2022/03/22 07:20:09;;;;;;;;;;;;;;;2.39;82.84;101094.59;5011148;28;19925;-78
2022/03/22 07:22:34;;;;;;;;;;;;;;;2.43;82.76;101099.03;5012261;28;19925;-79
2022/03/22 07:24:59;;;;;;;;;;;;;;;2.42;82.67;101105.09;5012140;28;19921;-78
2022/03/22 07:27:24;;;;;;;;;;;;;;;2.43;82.52;101099.03;5012438;28;20364;-79
2022/03/22 07:29:51;;;;;;;;;;;;;;;2.39;82.58;101100.69;5011235;28;19922;-79
2022/03/22 07:32:17;;;;;;;;;;;;;;;2.40;82.48;101104.22;5010715;28;19925;-80
2022/03/22 07:34:43;;;;;;;;;;;;;;;2.41;82.42;101098.09;5012266;28;20400;-79
2022/03/22 07:37:08;;;;;;;;;;;;;;;2.36;82.34;101101.56;5011235;28;20016;-79
2022/03/22 07:39:34;;;;;;;;;;;;;;;2.40;82.17;101098.97;5010758;28;19922;-79
2022/03/22 07:42:00;;;;;;;;;;;;;;;2.35;81.98;101093.69;5010914;28;20280;-79
2022/03/22 07:44:27;;;;;;;;;;;;;;;2.34;81.86;101092.78;5012023;28;19917;-80
2022/03/22 07:46:52;;;;;;;;;;;;;;;2.42;81.88;101099.88;5010723;28;20358;-79
2022/03/22 07:54:46;;;;;;;;;;;;;;;2.38;81.53;101098.97;5012567;28;19928;-80
2022/03/22 07:57:11;;;;;;;;;;;;;;;2.36;81.37;101109.41;5010659;28;19914;-80
2022/03/22 07:59:37;;;;;;;;;;;;;;;2.39;81.29;101108.53;4990080;28;19918;-79
2022/03/22 09:02:41;;;;;;;;;;;;;;;3.01;80.37;101093.47;5417053;23;20577;-78
2022/03/22 09:07:51;;;;;;;;;;;;;;;3.00;82.63;101092.63;5041711;28;19986;-80
2022/03/22 09:10:21;;;;;;;;;;;;;;;2.94;83.63;101102.16;5039757;28;19962;-80
2022/03/22 09:12:48;;;;;;;;;;;;;;;2.98;84.18;101096.06;5024817;28;19916;-80
2022/03/22 09:15:14;;;;;;;;;;;;;;;2.98;84.43;101098.69;5043536;28;19925;-80
2022/03/22 09:17:39;;;;;;;;;;;;;;;3.42;85.25;101098.19;5040799;28;19972;-77
2022/03/22 09:20:05;;;;;;;;;;;;;;;4.76;84.08;101085.69;5041163;28;19975;-78
2022/03/22 09:22:31;;;;;;;;;;;;;;;3.90;84.09;101095.88;5042393;28;20372;-80
2022/03/22 09:24:56;;;;;;;;;;;;;;;3.41;85.88;101097.28;5025711;28;19927;-80
2022/03/22 09:27:23;;;;;;;;;;;;;;;3.31;86.69;101092.88;5038386;28;19921;-80
2022/03/22 09:29:48;;;;;;;;;;;;;;;3.21;87.11;101094.53;5024275;28;19917;-80
2022/03/22 09:32:13;;;;;;;;;;;;;;;3.15;87.23;101084.00;5041283;28;19921;-80
2022/03/22 09:34:40;;;;;;;;;;;;;;;3.17;87.29;101084.03;5035056;28;19925;-80
2022/03/22 09:37:07;;;;;;;;;;;;;;;3.16;87.22;101080.53;5034818;28;19946;-79
2022/03/22 09:39:32;;;;;;;;;;;;;;;3.14;87.15;101084.84;5023403;28;19921;-80
2022/03/22 09:41:58;;;;;;;;;;;;;;;3.14;86.63;101081.38;5034952;28;19943;-80
2022/03/22 09:44:23;;;;;;;;;;;;;;;3.11;86.41;101074.34;5042762;28;19921;-79
2022/03/22 09:46:50;;;;;;;;;;;;;;;3.09;86.04;101082.22;5024313;28;19920;-80
2022/03/22 09:49:18;;;;;;;;;;;;;;;3.11;85.58;101076.97;5031501;28;19943;-80
2022/03/22 09:51:50;;;;;;;;;;;;;;;3.06;85.11;101078.69;5036258;28;20419;-80
2022/03/22 09:54:17;;;;;;;;;;;;;;;3.05;84.69;101069.97;5039765;28;20515;-80
2022/03/22 09:56:43;;;;;;;;;;;;;;;3.05;84.50;101076.94;5013764;28;19929;-80
2022/03/22 09:59:09;;;;;;;;;;;;;;;3.01;84.37;101067.31;5041844;28;19964;-80
2022/03/22 10:01:34;;;;;;;;;;;;;;;3.05;84.37;101066.47;5027859;28;19980;-80
2022/03/22 10:04:01;;;;;;;;;;;;;;;3.06;83.89;101068.22;5032973;28;19928;-80
2022/03/22 10:06:27;;;;;;;;;;;;;;;3.06;83.49;101058.63;5035364;28;19925;-80
2022/03/22 10:08:53;;;;;;;;;;;;;;;3.09;83.16;101063.00;5035229;28;19931;-80
2022/03/22 10:11:18;;;;;;;;;;;;;;;3.05;82.35;101056.88;5032508;28;19956;-80
2022/03/22 10:13:53;;;;;;;;;;;;;;;3.05;81.84;101053.38;5023126;28;19921;-80
2022/03/22 10:16:19;;;;;;;;;;;;;;;3.03;81.61;101055.97;5040018;28;19913;-80
2022/03/22 10:18:44;;;;;;;;;;;;;;;3.08;81.94;101050.78;5034875;28;19921;-80
2022/03/22 10:21:09;;;;;;;;;;;;;;;3.06;82.28;101052.50;5041249;28;19936;-80
2022/03/22 10:23:47;;;;;;;;;;;;;;;3.08;82.37;101056.91;5023999;28;19974;-80
2022/03/22 10:26:12;;;;;;;;;;;;;;;3.08;82.51;101046.41;5023431;28;19966;-80
2022/03/22 10:28:47;;;;;;;;;;;;;;;3.13;82.54;101049.06;5021426;28;20007;-80
2022/03/22 10:31:12;;;;;;;;;;;;;;;3.14;82.68;101049.94;5035573;28;19924;-81
2022/03/22 10:33:47;;;;;;;;;;;;;;;3.13;82.51;101046.47;5023340;28;19921;-80
2022/03/22 10:36:14;;;;;;;;;;;;;;;3.17;82.59;101044.72;5041090;28;19918;-80
2022/03/22 10:38:39;;;;;;;;;;;;;;;3.15;82.76;101036.00;5041851;28;19929;-81
2022/03/22 10:41:07;;;;;;;;;;;;;;;3.18;82.63;101043.88;5017905;28;19928;-81
2022/03/22 10:43:36;;;;;;;;;;;;;;;3.18;82.62;101042.13;5039369;28;20009;-80
2022/03/22 10:46:02;;;;;;;;;;;;;;;3.20;82.09;101039.50;5038859;28;19956;-80
2022/03/22 10:48:39;;;;;;;;;;;;;;;3.19;81.70;101032.50;5040822;28;20015;-81
2022/03/22 10:51:05;;;;;;;;;;;;;;;3.22;81.13;101040.41;5039035;28;20341;-80
2022/03/22 10:53:31;;;;;;;;;;;;;;;3.23;80.31;101029.94;5040682;28;20417;-80
2022/03/22 10:55:57;;;;;;;;;;;;;;;3.20;79.72;101034.28;5023691;28;19917;-80
2022/03/22 10:58:25;;;;;;;;;;;;;;;3.18;79.40;101028.16;5040494;28;19917;-80
2022/03/22 11:00:51;;;;;;;;;;;;;;;3.16;78.88;101022.00;5040669;28;19935;-79
2022/03/22 11:03:19;;;;;;;;;;;;;;;3.17;79.11;101021.16;5026971;28;19922;-80
2022/03/22 11:05:46;;;;;;;;;;;;;;;3.19;79.19;101028.16;5015665;28;19930;-80
2022/03/22 11:08:11;;;;;;;;;;;;;;;3.19;79.33;101022.94;5002225;28;19913;-80
2022/03/22 11:10:37;;;;;;;;;;;;;;;3.19;78.93;101016.78;5023306;28;19931;-79
2022/03/22 11:13:02;;;;;;;;;;;;;;;3.21;78.78;101017.69;5026164;28;19924;-80
2022/03/22 11:15:32;;;;;;;;;;;;;;;3.20;79.18;101018.56;5025539;28;19921;-80
2022/03/22 11:17:57;;;;;;;;;;;;;;;3.31;79.64;101022.13;5024187;28;19926;-80
2022/03/22 11:20:24;;;;;;;;;;;;;;;3.26;79.50;101016.00;5026131;28;19920;-79
2022/03/22 11:22:52;;;;;;;;;;;;;;;3.29;79.01;101013.38;5025688;28;19998;-80
2022/03/22 11:25:38;;;;;;;;;;;;;;;3.36;78.13;101019.53;5011763;28;20016;-79
2022/03/22 11:28:05;;;;;;;;;;;;;;;3.32;77.49;101009.88;5009570;28;20352;-80
2022/03/22 11:30:31;;;;;;;;;;;;;;;3.34;77.56;101005.56;5009606;28;20284;-80
2022/03/22 11:35:57;;;;;;;;;;;;;;;3.36;76.58;101003.81;5022754;28;19967;-80
2022/03/22 11:38:40;;;;;;;;;;;;;;;3.44;75.91;101007.34;5011269;28;20368;-80
2022/03/22 11:44:03;;;;;;;;;;;;;;;3.39;75.68;101001.22;5024857;28;20387;-79
2022/03/22 11:46:32;;;;;;;;;;;;;;;3.37;76.38;100993.34;5004945;28;19922;-80
2022/03/22 11:48:57;;;;;;;;;;;;;;;3.42;76.85;100998.63;5018251;28;19943;-79
2022/03/22 11:51:23;;;;;;;;;;;;;;;3.43;77.33;100995.09;5016834;28;19954;-80
2022/03/22 11:53:48;;;;;;;;;;;;;;;3.42;77.62;100996.88;5014081;28;19932;-80
2022/03/22 11:56:14;;;;;;;;;;;;;;;3.43;77.65;100992.50;5020272;28;19924;-80
2022/03/22 11:58:50;;;;;;;;;;;;;;;3.44;76.98;100992.50;5010136;28;20421;-80
2022/03/22 12:01:16;;;;;;;;;;;;;;;3.40;77.11;100993.38;5007383;28;19921;-80
2022/03/22 12:03:48;;;;;;;;;;;;;;;3.43;77.40;100976.78;5004001;28;20459;-80
2022/03/22 12:06:13;;;;;;;;;;;;;;;3.48;77.35;100971.56;5022760;28;20044;-80
2022/03/22 12:08:38;;;;;;;;;;;;;;;3.47;77.09;100973.31;5026280;28;20004;-80
2022/03/22 12:11:04;;;;;;;;;;;;;;;3.49;77.41;100978.56;5026187;28;19932;-80
2022/03/22 12:13:30;;;;;;;;;;;;;;;3.53;77.22;100970.72;5010667;28;19921;-80
2022/03/22 12:16:00;;;;;;;;;;;;;;;3.53;77.04;100964.63;5010924;28;19925;-79
2022/03/22 12:18:29;;;;;;;;;;;;;;;3.53;76.93;100962.84;5004055;28;20336;-80
2022/03/22 12:20:56;;;;;;;;;;;;;;;3.55;77.06;100962.88;5004974;28;19929;-80
2022/03/22 12:23:22;;;;;;;;;;;;;;;3.57;76.74;100966.38;5001044;28;19996;-80
2022/03/22 12:25:47;;;;;;;;;;;;;;;3.61;75.95;100962.91;4996322;28;19921;-80
2022/03/22 12:28:12;;;;;;;;;;;;;;;3.63;75.16;100955.91;5008606;28;19932;-80
2022/03/22 12:30:39;;;;;;;;;;;;;;;3.63;74.37;100958.53;5019573;28;19957;-80
2022/03/22 12:33:07;;;;;;;;;;;;;;;3.65;74.20;100954.16;5001553;28;20015;-80
2022/03/22 12:35:33;;;;;;;;;;;;;;;3.66;73.62;100953.31;5024207;28;20439;-80
2022/03/22 12:37:58;;;;;;;;;;;;;;;3.68;73.62;100959.41;5028769;28;19921;-80
2022/03/22 12:40:24;;;;;;;;;;;;;;;3.63;73.15;100956.78;5033437;28;19926;-80
2022/03/22 12:42:50;;;;;;;;;;;;;;;3.70;73.12;100949.84;5033498;28;19975;-80
2022/03/22 12:45:16;;;;;;;;;;;;;;;3.74;72.68;100948.97;5021186;28;19961;-80
2022/03/22 12:47:42;;;;;;;;;;;;;;;3.66;72.12;100939.34;5019382;28;19923;-80
2022/03/22 12:50:08;;;;;;;;;;;;;;;3.72;72.99;100934.97;5004238;28;19924;-80
2022/03/22 12:52:34;;;;;;;;;;;;;;;3.96;76.07;100933.31;5023797;28;20027;-80
2022/03/22 12:55:00;;;;;;;;;;;;;;;4.04;78.56;100928.94;5023737;28;19921;-80
2022/03/22 12:57:25;;;;;;;;;;;;;;;4.02;80.20;100925.47;5023378;28;19921;-80
2022/03/22 12:59:51;;;;;;;;;;;;;;;4.03;81.54;100929.81;5021558;28;20016;-80
2022/03/22 13:02:18;;;;;;;;;;;;;;;3.97;83.11;100929.78;5022987;28;19923;-80
2022/03/22 13:04:47;;;;;;;;;;;;;;;3.89;84.06;100926.28;5038421;28;19944;-80
2022/03/22 13:07:20;;;;;;;;;;;;;;;3.79;85.03;100920.13;5024854;28;20487;-80
2022/03/22 13:12:33;;;;;;;;;;;;;;;3.76;87.93;100913.13;5031765;28;19978;-80
2022/03/22 13:15:06;;;;;;;;;;;;;;;3.80;90.45;100914.91;5016149;28;19921;-80
2022/03/22 13:17:45;;;;;;;;;;;;;;;4.02;93.92;100916.69;5032123;28;19949;-80
2022/03/22 13:20:17;;;;;;;;;;;;;;;4.32;97.59;100910.63;5033201;28;19996;-80
2022/03/22 13:22:53;;;;;;;;;;;;;;;4.51;100.00;100909.75;5015800;28;19953;-80
2022/03/22 13:25:24;;;;;;;;;;;;;;;4.61;100.00;100907.13;5032298;28;19952;-80
2022/03/22 13:27:54;;;;;;;;;;;;;;;4.69;100.00;100905.34;5031513;28;19926;-80
2022/03/22 13:30:20;;;;;;;;;;;;;;;4.80;100.00;100905.34;5033917;28;19921;-80
2022/03/22 13:32:45;;;;;;;;;;;;;;;4.85;100.00;100907.13;5032750;28;20276;-80
2022/03/22 13:35:11;;;;;;;;;;;;;;;4.89;100.00;100908.84;5034172;28;19917;-80
2022/03/22 13:37:48;;;;;;;;;;;;;;;4.95;100.00;100904.47;5034442;28;19964;-80
2022/03/22 13:40:14;;;;;;;;;;;;;;;5.01;100.00;100901.81;5030376;28;20304;-81
2022/03/22 13:42:53;;;;;;;;;;;;;;;5.08;100.00;100900.94;5015700;28;19924;-80
2022/03/22 13:45:20;;;;;;;;;;;;;;;5.08;100.00;100890.41;5033209;28;19921;-80
2022/03/22 13:47:48;;;;;;;;;;;;;;;5.19;100.00;100893.88;5032186;28;19921;-80
2022/03/22 13:50:14;;;;;;;;;;;;;;;5.20;100.00;100887.78;5016322;28;20020;-80
2022/03/22 13:52:40;;;;;;;;;;;;;;;5.20;100.00;100890.41;5033855;28;19929;-80
2022/03/22 13:55:13;;;;;;;;;;;;;;;5.23;100.00;100892.13;5033800;28;20368;-80
2022/03/22 13:57:39;;;;;;;;;;;;;;;5.27;100.00;100886.84;5016020;28;20399;-80
2022/03/22 14:00:05;;;;;;;;;;;;;;;5.28;100.00;100885.97;5033789;28;19925;-80
2022/03/22 14:02:30;;;;;;;;;;;;;;;5.28;100.00;100880.72;5032275;28;20400;-80
2022/03/22 14:04:55;;;;;;;;;;;;;;;5.29;100.00;100878.97;5033683;28;19960;-80
2022/03/22 14:07:21;;;;;;;;;;;;;;;5.32;100.00;100885.97;5033593;28;19919;-80
2022/03/22 14:09:46;;;;;;;;;;;;;;;5.37;100.00;100884.19;5033533;28;19939;-80
2022/03/22 14:12:12;;;;;;;;;;;;;;;5.38;100.00;100884.19;5015277;28;19971;-80
2022/03/22 14:14:37;;;;;;;;;;;;;;;5.41;100.00;100880.69;5010941;28;19924;-81
2022/03/22 14:17:02;;;;;;;;;;;;;;;5.45;100.00;100883.25;5013968;28;20351;-80
2022/03/22 14:19:27;;;;;;;;;;;;;;;5.45;100.00;100867.50;5033415;28;19917;-80
2022/03/22 14:21:53;;;;;;;;;;;;;;;5.47;100.00;100872.75;5033274;28;19921;-80
2022/03/22 14:24:18;;;;;;;;;;;;;;;5.51;100.00;100874.50;5033629;28;19917;-80
2022/03/22 14:26:43;;;;;;;;;;;;;;;5.49;100.00;100876.25;5026940;28;19929;-80
2022/03/22 14:29:09;;;;;;;;;;;;;;;5.19;100.00;100875.50;5032216;28;20000;-80
2022/03/22 14:31:35;;;;;;;;;;;;;;;4.21;100.00;100876.50;5025298;28;20438;-87
2022/03/22 14:34:00;;;;;;;;;;;;;;;4.00;100.00;100872.09;4992531;28;20384;-87
2022/03/22 14:36:26;;;;;;;;;;;;;;;3.97;100.00;100872.09;5012764;28;19921;-87
2022/03/22 14:39:04;;;;;;;;;;;;;;;3.85;100.00;100872.09;5028687;28;19987;-87
2022/03/22 14:41:30;;;;;;;;;;;;;;;3.69;100.00;100873.81;5012869;28;19928;-88
2022/03/22 14:43:55;;;;;;;;;;;;;;;3.71;100.00;100872.06;5031914;28;20261;-87
2022/03/22 14:46:22;;;;;;;;;;;;;;;3.66;98.55;100868.56;5025142;28;19921;-86
2022/03/22 14:48:49;;;;;;;;;;;;;;;3.70;97.50;100865.06;5003690;28;19941;-86
2022/03/22 14:51:15;;;;;;;;;;;;;;;3.61;96.94;100868.53;5023934;28;20008;-85
2022/03/22 14:59:08;;;;;;;;;;;;;;;3.41;96.30;100857.97;5026955;28;19929;-85
2022/03/22 15:01:36;;;;;;;;;;;;;;;3.42;95.93;100852.75;5025709;28;19925;-86
2022/03/22 15:04:02;;;;;;;;;;;;;;;3.33;95.70;100857.94;5030757;28;19921;-86
2022/03/22 15:06:28;;;;;;;;;;;;;;;3.40;95.73;100858.88;5014455;28;19921;-86
2022/03/22 15:08:53;;;;;;;;;;;;;;;3.35;94.93;100852.72;5031201;28;19924;-86
2022/03/22 15:11:19;;;;;;;;;;;;;;;3.31;94.90;100849.22;5030305;28;20490;-86
2022/03/22 15:13:45;;;;;;;;;;;;;;;3.36;94.22;100847.47;5029848;28;19936;-86
2022/03/22 15:16:11;;;;;;;;;;;;;;;3.30;93.58;100850.06;5029502;28;20372;-86
2022/03/22 15:18:37;;;;;;;;;;;;;;;3.31;92.70;100857.06;5031184;28;19917;-86
2022/03/22 15:21:08;;;;;;;;;;;;;;;3.39;91.74;100842.25;5030765;28;20009;-94
2022/03/22 15:23:33;;;;;;;;;;;;;;;3.17;91.19;100845.66;5047494;28;19921;-86
2022/03/22 15:25:59;;;;;;;;;;;;;;;3.22;90.61;100842.22;5011924;28;19932;-86
2022/03/22 15:28:25;;;;;;;;;;;;;;;3.16;90.23;100839.56;5030489;28;19921;-86
2022/03/22 15:30:50;;;;;;;;;;;;;;;3.21;89.52;100837.81;5030588;28;19924;-85
2022/03/22 15:33:15;;;;;;;;;;;;;;;3.13;88.99;100830.78;5029688;28;20364;-84
2022/03/22 15:35:41;;;;;;;;;;;;;;;3.09;88.85;100827.28;5030507;28;20442;-86
2022/03/22 15:38:07;;;;;;;;;;;;;;;3.27;88.19;100829.09;5008972;28;19932;-85
2022/03/22 15:40:32;;;;;;;;;;;;;;;3.07;87.60;100831.66;5004401;28;19943;-86
2022/03/22 15:42:58;;;;;;;;;;;;;;;3.09;87.71;100824.69;5022208;28;19917;-86
2022/03/22 15:45:23;;;;;;;;;;;;;;;3.03;87.34;100828.16;5027374;28;20201;-85
2022/03/22 15:47:50;;;;;;;;;;;;;;;3.00;87.29;100814.16;5026544;28;20372;-86
2022/03/22 15:50:16;;;;;;;;;;;;;;;3.05;87.49;100820.31;5029527;28;19923;-85
2022/03/22 15:52:42;;;;;;;;;;;;;;;3.01;87.51;100818.53;5021823;28;19918;-88
2022/03/22 15:55:09;;;;;;;;;;;;;;;2.98;87.75;100823.75;5021506;28;20889;-86
2022/03/22 15:57:35;;;;;;;;;;;;;;;2.94;87.56;100817.63;5019451;28;19921;-86
2022/03/22 16:00:01;;;;;;;;;;;;;;;2.89;87.76;100808.88;5004291;28;19925;-86
2022/03/22 16:02:26;;;;;;;;;;;;;;;2.90;88.04;100803.66;5020502;28;19928;-86
2022/03/22 16:04:51;;;;;;;;;;;;;;;2.91;88.27;100804.53;5021256;28;19925;-86
2022/03/22 16:07:17;;;;;;;;;;;;;;;2.89;88.70;100808.88;5004390;28;19960;-86
2022/03/22 16:09:43;;;;;;;;;;;;;;;2.90;88.69;100805.38;5002277;28;19921;-86
2022/03/22 16:12:08;;;;;;;;;;;;;;;2.92;88.44;100801.06;5026022;28;19936;-86
2022/03/22 16:14:34;;;;;;;;;;;;;;;2.91;88.60;100804.53;5029413;28;19967;-86
2022/03/22 16:16:59;;;;;;;;;;;;;;;2.89;88.14;100798.41;5015469;28;19921;-86
2022/03/22 16:19:24;;;;;;;;;;;;;;;2.93;87.74;100800.16;5017697;28;19924;-86
2022/03/22 16:21:50;;;;;;;;;;;;;;;2.82;87.27;100799.25;5017630;28;20015;-86
2022/03/22 16:24:15;;;;;;;;;;;;;;;2.85;86.96;100807.09;5035325;28;20273;-86
2022/03/22 16:26:43;;;;;;;;;;;;;;;2.78;86.75;100802.72;5017612;28;19929;-85
2022/03/22 16:29:09;;;;;;;;;;;;;;;2.78;86.37;100805.34;5033419;28;20260;-86
2022/03/22 16:31:34;;;;;;;;;;;;;;;2.78;86.12;100802.72;5016298;28;19925;-86
2022/03/22 16:36:50;;;;;;;;;;;;;;;2.81;85.10;100807.94;5035220;28;19928;-86
2022/03/22 16:39:22;;;;;;;;;;;;;;;2.76;85.14;100809.66;5035196;28;19917;-85
2022/03/22 16:41:54;;;;;;;;;;;;;;;2.71;85.36;100815.78;5017395;28;19921;-87
2022/03/22 16:44:21;;;;;;;;;;;;;;;2.73;85.38;100814.03;5012978;28;20279;-87
2022/03/22 16:46:46;;;;;;;;;;;;;;;2.72;85.31;100816.63;5032083;28;19926;-86
2022/03/22 16:49:11;;;;;;;;;;;;;;;2.71;85.30;100812.25;5032751;28;19921;-87
2022/03/22 16:51:38;;;;;;;;;;;;;;;2.71;85.32;100814.88;5016966;28;19971;-87
2022/03/22 16:54:04;;;;;;;;;;;;;;;2.71;85.31;100818.41;5035000;28;19971;-87
2022/03/22 16:56:30;;;;;;;;;;;;;;;2.62;85.27;100815.72;5034317;28;19935;-87
2022/03/22 16:58:56;;;;;;;;;;;;;;;2.67;85.11;100815.75;5034965;28;19917;-87
2022/03/22 17:01:24;;;;;;;;;;;;;;;2.72;85.10;100820.13;5033001;28;19994;-86
2022/03/22 17:03:49;;;;;;;;;;;;;;;2.68;85.10;100821.00;5016691;28;20008;-87
2022/03/22 17:06:18;;;;;;;;;;;;;;;2.67;84.70;100816.63;5016569;28;20012;-87
2022/03/22 17:08:43;;;;;;;;;;;;;;;2.64;84.62;100829.69;5016292;28;19921;-87
2022/03/22 17:11:09;;;;;;;;;;;;;;;2.65;84.43;100825.31;5016384;28;19978;-87
2022/03/22 17:13:35;;;;;;;;;;;;;;;2.68;84.15;100821.00;5034735;28;19925;-87
2022/03/22 17:16:00;;;;;;;;;;;;;;;2.68;84.07;100825.31;5033707;28;19917;-87
2022/03/22 17:18:25;;;;;;;;;;;;;;;2.67;83.80;100827.06;5034240;28;19963;-87
2022/03/22 17:20:51;;;;;;;;;;;;;;;2.64;83.76;100818.34;5034673;28;19964;-86
2022/03/22 17:23:16;;;;;;;;;;;;;;;2.60;83.58;100827.03;5016228;28;19928;-86
2022/03/22 17:25:46;;;;;;;;;;;;;;;2.66;83.66;100834.91;5015602;28;19940;-86
2022/03/22 17:28:12;;;;;;;;;;;;;;;2.66;83.37;100827.06;5034332;28;19921;-87
2022/03/22 17:30:37;;;;;;;;;;;;;;;2.62;82.69;100828.81;5034287;28;19936;-87
2022/03/22 17:33:03;;;;;;;;;;;;;;;2.65;83.11;100826.19;5033011;28;19917;-86
2022/03/22 17:35:29;;;;;;;;;;;;;;;2.62;83.29;100828.81;5034222;28;19924;-86
2022/03/22 17:37:54;;;;;;;;;;;;;;;2.62;83.17;100831.41;5034163;28;19925;-87
2022/03/22 17:40:20;;;;;;;;;;;;;;;2.60;83.20;100830.53;5015731;28;19971;-87
2022/03/22 17:42:47;;;;;;;;;;;;;;;2.58;83.22;100837.47;5034132;28;20007;-87
2022/03/22 17:45:12;;;;;;;;;;;;;;;2.58;83.38;100845.34;5033779;28;19963;-86
2022/03/22 17:47:38;;;;;;;;;;;;;;;2.58;83.44;100840.09;5010602;28;19921;-87
2022/03/22 17:50:04;;;;;;;;;;;;;;;2.63;83.26;100835.78;5032018;28;20031;-87
2022/03/22 17:52:29;;;;;;;;;;;;;;;2.57;83.10;100843.59;5033236;28;20455;-87
2022/03/22 17:54:55;;;;;;;;;;;;;;;2.63;83.04;100833.19;5015769;28;20016;-87
2022/03/22 17:57:20;;;;;;;;;;;;;;;2.61;82.91;100836.63;5015705;28;19918;-87
2022/03/22 17:59:45;;;;;;;;;;;;;;;2.52;82.92;100838.34;5015751;28;20747;-88
2022/03/22 18:02:11;;;;;;;;;;;;;;;2.55;82.74;100845.31;5014096;28;19968;-86
2022/03/22 18:04:36;;;;;;;;;;;;;;;2.54;82.53;100844.44;5015645;28;19921;-87
2022/03/22 18:07:02;;;;;;;;;;;;;;;2.57;82.33;100840.09;5015113;28;19929;-86
2022/03/22 18:09:27;;;;;;;;;;;;;;;2.61;82.12;100850.59;5014236;28;20482;-86
2022/03/22 18:11:54;;;;;;;;;;;;;;;2.56;82.07;100849.69;5030908;28;20019;-87
2022/03/22 18:14:20;;;;;;;;;;;;;;;2.59;82.14;100847.09;5029606;28;19966;-86
2022/03/22 18:16:50;;;;;;;;;;;;;;;2.72;82.14;100846.28;5029516;28;19986;-86
2022/03/22 18:19:17;;;;;;;;;;;;;;;2.87;81.75;100844.63;5030916;28;19921;-81
2022/03/22 18:21:43;;;;;;;;;;;;;;;2.68;82.88;100852.41;5031246;28;20112;-80
2022/03/22 18:24:09;;;;;;;;;;;;;;;2.66;83.27;100855.84;5013076;28;20058;-81
2022/03/22 18:26:34;;;;;;;;;;;;;;;2.62;83.38;100857.59;5013722;28;19921;-80
2022/03/22 18:29:00;;;;;;;;;;;;;;;2.57;83.61;100859.31;5027527;28;19925;-81
2022/03/22 18:31:26;;;;;;;;;;;;;;;2.62;83.75;100859.34;5030655;28;19925;-81
2022/03/22 18:33:52;;;;;;;;;;;;;;;2.63;83.82;100864.59;5033199;28;19952;-81
2022/03/22 18:36:17;;;;;;;;;;;;;;;2.61;83.71;100860.19;5031063;28;20265;-80
2022/03/22 18:38:44;;;;;;;;;;;;;;;2.60;83.76;100861.03;5012502;28;19928;-81
2022/03/22 18:41:09;;;;;;;;;;;;;;;2.58;83.82;100868.88;5032274;28;19921;-80
2022/03/22 18:43:35;;;;;;;;;;;;;;;2.53;83.87;100867.97;5032413;28;19917;-80
2022/03/22 18:46:00;;;;;;;;;;;;;;;2.56;83.94;100867.13;5013918;28;19921;-81
2022/03/22 18:48:25;;;;;;;;;;;;;;;2.56;83.84;100877.59;5032164;28;19917;-80
2022/03/22 18:50:51;;;;;;;;;;;;;;;2.56;83.75;100875.84;5007888;28;20327;-80
2022/03/22 18:53:17;;;;;;;;;;;;;;;2.56;83.28;100877.59;5030974;28;19924;-80
2022/03/22 18:55:42;;;;;;;;;;;;;;;2.55;82.70;100876.72;5012838;28;19975;-81
2022/03/22 18:58:07;;;;;;;;;;;;;;;2.57;82.36;100874.09;5031573;28;19929;-81
2022/03/22 19:00:34;;;;;;;;;;;;;;;2.58;82.53;100881.09;5009710;28;20004;-80
2022/03/22 19:03:00;;;;;;;;;;;;;;;2.55;82.80;100887.19;5008655;28;20368;-80
2022/03/22 19:05:27;;;;;;;;;;;;;;;2.59;82.65;100883.72;5013846;28;19971;-81
2022/03/22 19:07:52;;;;;;;;;;;;;;;2.63;82.64;100884.63;5013874;28;20392;-80
2022/03/22 19:10:18;;;;;;;;;;;;;;;2.58;82.71;100881.97;5031188;28;19967;-81
2022/03/22 19:12:44;;;;;;;;;;;;;;;2.57;82.60;100884.56;5014174;28;19949;-82
2022/03/22 19:15:09;;;;;;;;;;;;;;;2.61;82.50;100888.97;5032186;28;20291;-81
2022/03/22 19:17:52;;;;;;;;;;;;;;;2.58;82.40;100892.44;5012922;28;19921;-81
2022/03/22 19:20:18;;;;;;;;;;;;;;;2.57;82.39;100890.69;5013002;28;19917;-81
2022/03/22 19:22:44;;;;;;;;;;;;;;;2.60;82.28;100900.28;5013854;28;19921;-81
2022/03/22 19:25:10;;;;;;;;;;;;;;;2.63;82.24;100887.25;5029545;28;19942;-81
2022/03/22 19:27:36;;;;;;;;;;;;;;;2.64;82.24;100892.47;5031060;28;19979;-80
2022/03/22 19:30:01;;;;;;;;;;;;;;;2.66;82.37;100897.72;5029620;28;19921;-80
2022/03/22 19:35:11;;;;;;;;;;;;;;;2.68;82.27;100894.28;5031856;28;20399;-80
2022/03/22 19:37:37;;;;;;;;;;;;;;;2.62;82.04;100902.06;5012874;28;20020;-80
2022/03/22 19:40:02;;;;;;;;;;;;;;;2.68;82.02;100904.75;5031085;28;20012;-81
2022/03/22 19:42:27;;;;;;;;;;;;;;;2.66;81.93;100902.97;5013436;28;19963;-80
2022/03/22 19:44:54;;;;;;;;;;;;;;;2.69;81.74;100905.59;5013927;28;19917;-81
2022/03/22 19:47:19;;;;;;;;;;;;;;;2.70;81.43;100900.38;5030029;28;19917;-81
2022/03/22 19:49:51;;;;;;;;;;;;;;;2.68;81.31;100904.75;5031838;28;19986;-80
2022/03/22 19:52:17;;;;;;;;;;;;;;;2.70;81.25;100903.00;5031624;28;19921;-81
2022/03/22 19:54:43;;;;;;;;;;;;;;;2.68;81.19;100907.34;5013917;28;20393;-80
2022/03/22 19:57:08;;;;;;;;;;;;;;;2.73;81.11;100908.25;5013505;28;19975;-81
2022/03/22 19:59:35;;;;;;;;;;;;;;;2.71;81.03;100906.47;5030840;28;19928;-81
2022/03/22 20:02:00;;;;;;;;;;;;;;;2.70;80.92;100903.00;5030457;28;19917;-81
2022/03/22 20:04:26;;;;;;;;;;;;;;;2.71;80.75;100910.00;5031507;28;19925;-81
2022/03/22 20:06:51;;;;;;;;;;;;;;;2.77;80.49;100914.38;5013840;28;19917;-81
2022/03/22 20:09:16;;;;;;;;;;;;;;;2.76;80.20;100912.66;5013422;28;19925;-80
2022/03/22 20:11:42;;;;;;;;;;;;;;;2.78;80.02;100917.91;5030567;28;19924;-81
2022/03/22 20:14:07;;;;;;;;;;;;;;;2.72;79.77;100916.97;5009166;28;19921;-81
2022/03/22 20:16:33;;;;;;;;;;;;;;;2.73;79.56;100916.13;5030190;28;19921;-81
2022/03/22 20:18:58;;;;;;;;;;;;;;;2.76;79.61;100914.38;5013629;28;19924;-80